createdAt,value
2019-05-06T00:01:04.900Z,2.67
2019-05-06T00:03:36.486Z,2.10
2019-05-06T00:06:08.289Z,1.80
2019-05-06T00:08:39.572Z,1.93
2019-05-06T00:11:11.010Z,2.07
2019-05-06T00:13:44.543Z,1.80
2019-05-06T00:16:16.217Z,1.87
2019-05-06T00:18:47.672Z,1.80
2019-05-06T00:21:19.282Z,2.13
2019-05-06T00:23:56.004Z,2.57
2019-05-06T00:26:45.031Z,1.73
2019-05-06T00:29:18.528Z,1.43
2019-05-06T00:31:50.037Z,2.17
2019-05-06T00:34:21.266Z,1.70
2019-05-06T00:36:54.540Z,1.80
2019-05-06T00:39:54.033Z,2.10
2019-05-06T00:42:48.678Z,2.60
2019-05-06T00:45:20.038Z,1.70
2019-05-06T00:47:53.522Z,1.70
2019-05-06T00:50:24.740Z,2.20
2019-05-06T00:52:59.096Z,1.97
2019-05-06T00:55:31.193Z,1.77
2019-05-06T00:58:04.048Z,1.80
2019-05-06T01:00:38.631Z,1.53
2019-05-06T01:03:10.011Z,1.93
2019-05-06T01:05:44.431Z,1.53
2019-05-06T01:08:15.888Z,2.43
2019-05-06T01:10:47.896Z,1.77
2019-05-06T01:13:50.690Z,2.20
2019-05-06T01:16:22.321Z,1.83
2019-05-06T01:18:54.272Z,1.70
2019-05-06T01:21:25.743Z,1.97
2019-05-06T01:23:57.376Z,1.73
2019-05-06T01:26:28.663Z,1.83
2019-05-06T01:29:00.007Z,1.97
2019-05-06T01:31:42.224Z,1.50
2019-05-06T01:34:04.744Z,1.47
2019-05-06T01:36:36.174Z,2.10
2019-05-06T01:39:19.068Z,1.70
2019-05-06T01:42:08.258Z,1.40
2019-05-06T01:44:39.502Z,2.53
2019-05-06T01:47:11.370Z,2.87
2019-05-06T01:49:44.225Z,2.40
2019-05-06T01:52:15.845Z,2.50
2019-05-06T01:54:47.281Z,1.93
2019-05-06T01:57:19.152Z,2.27
2019-05-06T01:59:50.508Z,2.17
2019-05-06T02:02:23.859Z,2.20
2019-05-06T02:04:57.069Z,2.60
2019-05-06T02:07:28.641Z,2.83
2019-05-06T02:10:03.826Z,3.10
2019-05-06T02:12:34.360Z,3.00
2019-05-06T02:15:05.795Z,3.70
2019-05-06T02:17:37.013Z,4.23
2019-05-06T02:20:09.636Z,4.70
2019-05-06T02:23:04.184Z,3.90
2019-05-06T02:25:40.718Z,4.20
2019-05-06T02:28:14.195Z,3.50
2019-05-06T02:31:16.646Z,4.50
2019-05-06T02:34:01.560Z,4.80
2019-05-06T02:36:54.953Z,5.57
2019-05-06T02:39:27.041Z,4.30
2019-05-06T02:41:58.585Z,4.80
2019-05-06T02:44:33.393Z,4.07
2019-05-06T02:47:14.532Z,4.60
2019-05-06T02:49:53.258Z,4.63
2019-05-06T02:52:23.812Z,4.80
2019-05-06T02:54:55.013Z,4.70
2019-05-06T02:57:26.222Z,4.60
2019-05-06T02:59:57.633Z,4.37
2019-05-06T03:02:41.920Z,6.20
2019-05-06T03:05:04.266Z,5.20
2019-05-06T03:07:37.636Z,5.20
2019-05-06T03:10:12.875Z,6.03
2019-05-06T03:12:43.490Z,5.63
2019-05-06T03:15:16.798Z,4.47
2019-05-06T03:17:48.898Z,5.37
2019-05-06T03:20:43.904Z,6.00
2019-05-06T03:23:17.483Z,5.80
2019-05-06T03:25:48.853Z,6.30
2019-05-06T03:28:23.132Z,5.73
2019-05-06T03:30:56.676Z,5.40
2019-05-06T03:33:47.474Z,6.97
2019-05-06T03:36:15.384Z,6.70
2019-05-06T03:38:34.712Z,6.53
2019-05-06T03:41:06.184Z,6.40
2019-05-06T03:43:37.641Z,6.77
2019-05-06T03:46:27.889Z,5.73
2019-05-06T03:49:03.791Z,7.87
2019-05-06T03:51:36.998Z,5.87
2019-05-06T03:54:08.604Z,5.80
2019-05-06T03:56:43.151Z,6.07
2019-05-06T03:59:13.766Z,6.87
2019-05-06T04:01:45.614Z,6.07
2019-05-06T04:04:17.232Z,5.90
2019-05-06T04:06:48.853Z,5.27
2019-05-06T04:09:20.132Z,5.30
2019-05-06T04:11:54.163Z,5.27
2019-05-06T04:14:25.505Z,5.93
2019-05-06T04:17:25.113Z,6.30
2019-05-06T04:20:04.050Z,6.23
2019-05-06T04:22:46.338Z,6.80
2019-05-06T04:25:43.196Z,5.90
2019-05-06T04:28:16.282Z,5.50
2019-05-06T04:30:47.557Z,5.23
2019-05-06T04:33:18.748Z,5.77
2019-05-06T04:35:50.145Z,5.83
2019-05-06T04:38:24.495Z,5.40
2019-05-06T04:40:55.820Z,5.07
2019-05-06T04:43:28.641Z,4.80
2019-05-06T04:46:03.139Z,5.30
2019-05-06T04:48:34.910Z,5.60
2019-05-06T04:51:06.148Z,10.87
2019-05-06T04:53:37.743Z,11.97
2019-05-06T04:56:09.474Z,11.70
2019-05-06T04:58:44.349Z,8.47
2019-05-06T05:01:27.895Z,7.60
2019-05-06T05:04:03.269Z,7.70
2019-05-06T05:06:33.788Z,5.90
2019-05-06T05:09:06.585Z,5.90
2019-05-06T05:11:53.183Z,5.50
2019-05-06T05:14:42.373Z,5.90
2019-05-06T05:17:35.475Z,8.13
2019-05-06T05:20:08.759Z,6.70
2019-05-06T05:22:42.223Z,6.07
2019-05-06T05:25:13.121Z,6.87
2019-05-06T05:27:44.640Z,6.57
2019-05-06T05:30:17.978Z,5.67
2019-05-06T05:32:49.546Z,5.27
2019-05-06T05:35:22.611Z,6.00
2019-05-06T05:37:53.723Z,5.80
2019-05-06T05:40:24.984Z,8.13
2019-05-06T05:43:11.635Z,6.03
2019-05-06T05:45:42.768Z,5.80
2019-05-06T05:48:27.505Z,5.77
2019-05-06T05:50:58.767Z,6.00
2019-05-06T05:53:30.084Z,6.10
2019-05-06T05:56:02.566Z,4.97
2019-05-06T05:58:34.083Z,5.70
2019-05-06T06:01:05.562Z,6.97
2019-05-06T06:03:36.888Z,7.20
2019-05-06T06:06:08.551Z,6.50
2019-05-06T06:08:39.872Z,5.93
2019-05-06T06:11:23.002Z,8.17
2019-05-06T06:13:55.861Z,10.30
2019-05-06T06:16:37.269Z,7.60
2019-05-06T06:19:22.554Z,4.90
2019-05-06T06:22:02.730Z,5.37
2019-05-06T06:24:35.603Z,5.30
2019-05-06T06:27:06.984Z,5.77
2019-05-06T06:29:38.225Z,6.37
2019-05-06T06:32:18.215Z,5.80
2019-05-06T06:35:10.878Z,6.13
2019-05-06T06:37:43.015Z,5.60
2019-05-06T06:40:15.792Z,5.73
2019-05-06T06:42:52.610Z,5.70
2019-05-06T06:45:24.192Z,4.67
2019-05-06T06:47:55.408Z,5.27
2019-05-06T06:50:26.998Z,4.40
2019-05-06T06:52:58.573Z,6.33
2019-05-06T06:55:31.870Z,5.00
2019-05-06T06:58:12.020Z,5.00
2019-05-06T07:01:03.178Z,5.10
2019-05-06T07:04:02.611Z,5.33
2019-05-06T07:06:42.311Z,3.63
2019-05-06T07:09:14.068Z,6.60
2019-05-06T07:11:45.564Z,12.50
2019-05-06T07:14:17.631Z,4.63
2019-05-06T07:16:49.116Z,16.30
2019-05-06T07:19:27.398Z,8.10
2019-05-06T07:22:00.381Z,4.80
2019-05-06T07:24:32.510Z,5.10
2019-05-06T07:27:15.383Z,4.40
2019-05-06T07:29:48.138Z,5.80
2019-05-06T07:32:20.407Z,3.57
2019-05-06T07:34:53.165Z,4.00
2019-05-06T07:37:25.303Z,4.03
2019-05-06T07:39:56.888Z,4.60
2019-05-06T07:42:34.858Z,5.83
2019-05-06T07:45:38.074Z,4.23
2019-05-06T07:48:12.858Z,4.60
2019-05-06T07:50:44.683Z,4.87
2019-05-06T07:53:15.904Z,4.47
2019-05-06T07:55:47.239Z,3.90
2019-05-06T07:58:18.427Z,3.70
2019-05-06T08:00:52.366Z,4.17
2019-05-06T08:03:26.349Z,4.00
2019-05-06T08:05:58.769Z,3.60
2019-05-06T08:08:33.499Z,4.47
2019-05-06T08:11:05.724Z,4.03
2019-05-06T08:13:37.068Z,4.33
2019-05-06T08:16:08.758Z,4.23
2019-05-06T08:18:42.518Z,5.50
2019-05-06T08:21:22.244Z,4.70
2019-05-06T08:23:55.121Z,3.83
2019-05-06T08:26:26.546Z,4.67
2019-05-06T08:28:57.753Z,4.27
2019-05-06T08:31:28.964Z,3.97
2019-05-06T08:34:02.576Z,3.37
2019-05-06T08:37:12.165Z,3.97
2019-05-06T08:39:45.983Z,3.20
2019-05-06T08:42:16.651Z,3.60
2019-05-06T08:44:49.467Z,3.13
2019-05-06T08:47:22.339Z,3.17
2019-05-06T08:50:21.691Z,3.23
2019-05-06T08:53:16.209Z,3.60
2019-05-06T08:55:47.848Z,5.20
2019-05-06T08:58:19.145Z,3.90
2019-05-06T09:01:02.825Z,4.97
2019-05-06T09:03:34.008Z,3.73
2019-05-06T09:06:07.460Z,4.77
2019-05-06T09:08:38.593Z,4.37
2019-05-06T09:11:12.193Z,3.07
2019-05-06T09:13:43.725Z,3.67
2019-05-06T09:16:14.944Z,4.20
2019-05-06T09:18:46.487Z,4.07
2019-05-06T09:21:18.179Z,3.00
2019-05-06T09:23:49.383Z,2.70
2019-05-06T09:26:24.889Z,4.60
2019-05-06T09:29:19.302Z,3.80
2019-05-06T09:31:53.568Z,4.70
2019-05-06T09:34:34.329Z,5.83
2019-05-06T09:37:16.288Z,5.30
2019-05-06T09:39:48.600Z,6.20
2019-05-06T09:42:23.365Z,4.53
2019-05-06T09:44:55.212Z,3.90
2019-05-06T09:47:42.399Z,3.60
2019-05-06T09:50:16.266Z,4.00
2019-05-06T09:52:47.543Z,3.63
2019-05-06T09:55:56.080Z,3.90
2019-05-06T09:58:32.307Z,3.37
2019-05-06T10:01:05.032Z,4.00
2019-05-06T10:03:37.435Z,3.57
2019-05-06T10:06:08.724Z,5.17
2019-05-06T10:08:40.230Z,3.20
2019-05-06T10:11:11.641Z,4.80
2019-05-06T10:13:43.190Z,3.77
2019-05-06T10:16:14.805Z,3.80
2019-05-06T10:18:46.038Z,3.30
2019-05-06T10:21:17.287Z,3.23
2019-05-06T10:23:48.507Z,3.20
2019-05-06T10:26:20.058Z,3.10
2019-05-06T10:29:02.319Z,3.77
2019-05-06T10:31:39.753Z,3.10
2019-05-06T10:34:13.845Z,3.20
2019-05-06T10:37:11.496Z,3.53
2019-05-06T10:39:35.601Z,3.90
2019-05-06T10:42:13.347Z,4.10
2019-05-06T10:45:09.148Z,4.00
2019-05-06T10:47:42.338Z,3.23
2019-05-06T10:50:14.057Z,3.93
2019-05-06T10:53:03.371Z,3.37
2019-05-06T10:55:35.589Z,3.40
2019-05-06T10:58:06.829Z,3.40
2019-05-06T11:00:38.280Z,4.13
2019-05-06T11:03:15.481Z,2.80
2019-05-06T11:05:46.905Z,3.60
2019-05-06T11:08:19.448Z,5.00
2019-05-06T11:10:53.396Z,3.37
2019-05-06T11:13:27.588Z,3.20
2019-05-06T11:15:58.877Z,3.07
2019-05-06T11:18:33.500Z,2.60
2019-05-06T11:21:04.746Z,3.40
2019-05-06T11:23:36.220Z,3.07
2019-05-06T11:26:09.179Z,2.63
2019-05-06T11:28:44.483Z,2.70
2019-05-06T11:31:46.892Z,2.90
2019-05-06T11:34:32.617Z,2.20
2019-05-06T11:37:23.227Z,2.43
2019-05-06T11:39:53.953Z,2.63
2019-05-06T11:42:32.111Z,2.60
2019-05-06T11:44:58.660Z,2.13
2019-05-06T11:47:32.322Z,3.10
2019-05-06T11:50:05.063Z,2.90
2019-05-06T11:52:35.889Z,2.60
2019-05-06T11:55:07.595Z,3.57
2019-05-06T11:57:41.648Z,3.23
2019-05-06T12:00:16.603Z,3.83
2019-05-06T12:02:49.137Z,2.63
2019-05-06T12:05:22.334Z,3.17
2019-05-06T12:08:04.573Z,3.30
2019-05-06T12:10:27.542Z,3.07
2019-05-06T12:12:58.991Z,3.03
2019-05-06T12:15:30.303Z,3.27
2019-05-06T12:18:03.697Z,3.20
2019-05-06T12:20:35.473Z,2.80
2019-05-06T12:23:06.812Z,2.50
2019-05-06T12:25:38.035Z,2.80
2019-05-06T12:28:09.603Z,2.90
2019-05-06T12:30:42.751Z,2.57
2019-05-06T12:33:33.106Z,2.60
2019-05-06T12:36:16.155Z,2.63
2019-05-06T12:39:06.497Z,2.47
2019-05-06T12:41:53.974Z,2.30
2019-05-06T12:44:25.210Z,2.70
2019-05-06T12:47:20.510Z,2.80
2019-05-06T12:49:53.413Z,3.00
2019-05-06T12:52:25.022Z,2.30
2019-05-06T12:55:16.442Z,2.87
2019-05-06T12:57:30.014Z,2.70
2019-05-06T13:00:03.471Z,3.20
2019-05-06T13:02:35.233Z,4.27
2019-05-06T13:05:06.832Z,3.70
2019-05-06T13:07:44.386Z,3.47
2019-05-06T13:10:17.132Z,2.57
2019-05-06T13:12:54.230Z,2.60
2019-05-06T13:15:25.637Z,2.77
2019-05-06T13:17:57.245Z,2.93
2019-05-06T13:20:34.083Z,2.40
2019-05-06T13:23:26.057Z,5.20
2019-05-06T13:25:57.736Z,2.60
2019-05-06T13:28:33.917Z,2.93
2019-05-06T13:31:19.427Z,3.90
2019-05-06T13:34:03.293Z,3.40
2019-05-06T13:36:34.679Z,2.67
2019-05-06T13:39:14.726Z,4.00
2019-05-06T13:41:42.143Z,4.60
2019-05-06T13:44:18.150Z,3.70
2019-05-06T13:46:56.089Z,2.83
2019-05-06T13:49:55.722Z,2.80
2019-05-06T13:52:32.871Z,3.00
2019-05-06T13:55:04.704Z,3.07
2019-05-06T13:57:39.387Z,2.60
2019-05-06T14:00:13.620Z,2.40
2019-05-06T14:02:56.469Z,3.63
2019-05-06T14:05:28.519Z,11.90
2019-05-06T14:08:04.172Z,3.67
2019-05-06T14:10:33.891Z,3.47
2019-05-06T14:13:05.522Z,4.97
2019-05-06T14:15:36.719Z,3.33
2019-05-06T14:18:08.300Z,2.50
2019-05-06T14:20:39.667Z,5.20
2019-05-06T14:23:12.722Z,5.60
2019-05-06T14:26:05.593Z,3.63
2019-05-06T14:28:43.037Z,2.83
2019-05-06T14:31:19.712Z,2.80
2019-05-06T14:33:52.216Z,4.63
2019-05-06T14:36:27.233Z,2.93
2019-05-06T14:38:56.816Z,6.90
2019-05-06T14:41:29.111Z,4.40
2019-05-06T14:44:04.937Z,7.13
2019-05-06T14:47:07.291Z,4.30
2019-05-06T14:49:38.861Z,4.40
2019-05-06T14:52:10.066Z,9.40
2019-05-06T14:54:53.265Z,3.50
2019-05-06T14:57:25.421Z,2.93
2019-05-06T14:59:56.692Z,3.27
2019-05-06T15:02:28.832Z,4.60
2019-05-06T15:05:02.731Z,3.03
2019-05-06T15:07:33.235Z,4.33
2019-05-06T15:10:18.870Z,2.70
2019-05-06T15:12:37.997Z,3.20
2019-05-06T15:15:12.085Z,3.10
2019-05-06T15:17:44.369Z,4.17
2019-05-06T15:20:15.800Z,6.40
2019-05-06T15:22:47.139Z,4.30
2019-05-06T15:25:18.356Z,6.43
2019-05-06T15:27:50.005Z,5.53
2019-05-06T15:30:27.923Z,4.60
2019-05-06T15:32:59.524Z,2.80
2019-05-06T15:36:06.967Z,5.20
2019-05-06T15:38:38.872Z,4.43
2019-05-06T15:41:10.289Z,4.30
2019-05-06T15:43:41.556Z,3.50
2019-05-06T15:46:12.976Z,3.60
2019-05-06T15:48:44.312Z,3.60
2019-05-06T15:51:15.668Z,4.50
2019-05-06T15:53:46.978Z,2.90
2019-05-06T15:56:18.332Z,4.27
2019-05-06T15:58:50.312Z,6.47
2019-05-06T16:01:23.491Z,7.17
2019-05-06T16:03:55.228Z,5.37
2019-05-06T16:06:27.691Z,3.03
2019-05-06T16:09:03.467Z,2.97
2019-05-06T16:11:33.918Z,5.27
2019-05-06T16:14:05.769Z,3.10
2019-05-06T16:16:37.248Z,3.17
2019-05-06T16:19:08.468Z,3.63
2019-05-06T16:21:42.997Z,3.17
2019-05-06T16:24:18.333Z,3.30
2019-05-06T16:26:49.796Z,2.60
2019-05-06T16:29:35.510Z,3.50
2019-05-06T16:32:13.686Z,3.43
2019-05-06T16:34:45.145Z,5.10
2019-05-06T16:37:16.906Z,3.20
2019-05-06T16:39:48.339Z,7.50
2019-05-06T16:42:22.258Z,3.40
2019-05-06T16:44:52.915Z,2.63
2019-05-06T16:47:52.476Z,2.63
2019-05-06T16:50:24.347Z,3.13
2019-05-06T16:52:55.667Z,3.23
2019-05-06T16:55:36.811Z,3.43
2019-05-06T16:58:12.126Z,3.13
2019-05-06T17:00:43.646Z,3.37
2019-05-06T17:03:23.130Z,2.87
2019-05-06T17:06:25.058Z,3.90
2019-05-06T17:08:56.292Z,2.93
2019-05-06T17:11:31.221Z,3.10
2019-05-06T17:14:02.961Z,3.30
2019-05-06T17:16:34.480Z,3.40
2019-05-06T17:19:05.953Z,3.30
2019-05-06T17:21:37.492Z,3.70
2019-05-06T17:24:08.843Z,3.70
2019-05-06T17:26:42.586Z,3.27
2019-05-06T17:29:38.896Z,3.60
2019-05-06T17:32:28.732Z,4.20
2019-05-06T17:35:02.651Z,4.70
2019-05-06T17:37:55.503Z,3.70
2019-05-06T17:40:26.811Z,14.97
2019-05-06T17:42:58.161Z,9.90
2019-05-06T17:46:01.387Z,5.43
2019-05-06T17:48:52.689Z,5.93
2019-05-06T17:51:33.775Z,5.30
2019-05-06T17:54:05.616Z,4.37
2019-05-06T17:56:37.132Z,3.50
2019-05-06T17:59:08.614Z,4.27
2019-05-06T18:01:46.559Z,4.47
2019-05-06T18:04:17.769Z,4.00
2019-05-06T18:06:48.978Z,3.43
2019-05-06T18:09:22.363Z,4.27
2019-05-06T18:11:58.838Z,4.30
2019-05-06T18:14:26.486Z,3.87
2019-05-06T18:16:57.875Z,4.30
2019-05-06T18:19:29.625Z,3.57
2019-05-06T18:22:02.516Z,3.50
2019-05-06T18:24:34.605Z,4.33
2019-05-06T18:27:06.347Z,3.70
2019-05-06T18:29:37.644Z,3.70
2019-05-06T18:32:08.940Z,3.13
2019-05-06T18:34:40.450Z,3.57
2019-05-06T18:37:12.815Z,3.80
2019-05-06T18:39:44.399Z,2.87
2019-05-06T18:42:19.967Z,3.00
2019-05-06T18:44:49.147Z,3.43
2019-05-06T18:47:20.598Z,4.90
2019-05-06T18:49:52.458Z,3.40
2019-05-06T18:52:24.046Z,4.57
2019-05-06T18:54:55.766Z,4.23
2019-05-06T18:57:27.155Z,4.70
2019-05-06T18:59:58.484Z,3.90
2019-05-06T19:02:29.946Z,3.03
2019-05-06T19:05:08.096Z,4.60
2019-05-06T19:07:39.597Z,4.00
2019-05-06T19:10:30.162Z,3.60
2019-05-06T19:13:02.073Z,3.00
2019-05-06T19:15:33.994Z,3.30
2019-05-06T19:18:05.472Z,3.50
2019-05-06T19:20:37.010Z,3.30
2019-05-06T19:23:08.281Z,4.63
2019-05-06T19:25:39.663Z,3.97
2019-05-06T19:28:12.120Z,2.80
2019-05-06T19:30:44.298Z,3.53
2019-05-06T19:33:15.905Z,5.70
2019-05-06T19:35:47.434Z,4.70
2019-05-06T19:38:21.597Z,6.60
2019-05-06T19:40:54.156Z,5.97
2019-05-06T19:43:28.090Z,5.23
2019-05-06T19:45:59.387Z,5.30
2019-05-06T19:48:32.821Z,4.70
2019-05-06T19:51:04.177Z,4.17
2019-05-06T19:53:35.619Z,4.90
2019-05-06T19:56:08.702Z,5.33
2019-05-06T19:58:40.026Z,5.73
2019-05-06T20:01:11.546Z,6.83
2019-05-06T20:03:43.023Z,3.90
2019-05-06T20:06:34.795Z,5.00
2019-05-06T20:09:39.381Z,5.13
2019-05-06T20:12:17.122Z,5.00
2019-05-06T20:14:48.398Z,4.57
2019-05-06T20:17:22.139Z,4.10
2019-05-06T20:19:53.252Z,4.50
2019-05-06T20:22:24.781Z,4.87
2019-05-06T20:24:56.361Z,4.10
2019-05-06T20:27:27.728Z,3.80
2019-05-06T20:29:59.310Z,3.30
2019-05-06T20:32:32.302Z,3.40
2019-05-06T20:35:06.322Z,3.70
2019-05-06T20:37:36.694Z,3.30
2019-05-06T20:40:07.964Z,3.80
2019-05-06T20:42:39.161Z,3.37
2019-05-06T20:45:12.699Z,4.37
2019-05-06T20:47:44.082Z,4.00
2019-05-06T20:50:15.724Z,4.30
2019-05-06T20:52:47.309Z,3.80
2019-05-06T20:55:18.505Z,3.97
2019-05-06T20:57:50.160Z,3.30
2019-05-06T21:00:22.447Z,4.00
2019-05-06T21:02:54.287Z,4.10
2019-05-06T21:05:25.566Z,3.93
2019-05-06T21:07:57.070Z,4.23
2019-05-06T21:10:28.298Z,4.37
2019-05-06T21:12:59.512Z,4.07
2019-05-06T21:15:32.368Z,3.80
2019-05-06T21:18:04.526Z,3.93
2019-05-06T21:20:36.346Z,3.30
2019-05-06T21:23:08.040Z,4.20
2019-05-06T21:25:39.640Z,4.90
2019-05-06T21:28:12.797Z,4.37
2019-05-06T21:30:43.976Z,5.23
2019-05-06T21:33:15.702Z,4.10
2019-05-06T21:35:48.735Z,3.97
2019-05-06T21:38:20.016Z,4.87
2019-05-06T21:40:52.937Z,3.97
2019-05-06T21:43:25.818Z,3.50
2019-05-06T21:45:59.098Z,4.03
2019-05-06T21:48:30.587Z,3.90
2019-05-06T21:51:02.372Z,3.97
2019-05-06T21:53:33.980Z,5.77
2019-05-06T21:56:05.271Z,6.63
2019-05-06T21:58:36.458Z,6.93
2019-05-06T22:01:08.651Z,7.00
2019-05-06T22:03:40.086Z,12.07
2019-05-06T22:06:12.962Z,16.13
2019-05-06T22:08:44.598Z,7.17
2019-05-06T22:11:15.975Z,4.97
2019-05-06T22:13:58.884Z,5.63
2019-05-06T22:16:22.901Z,4.20
2019-05-06T22:18:53.833Z,3.90
2019-05-06T22:21:26.877Z,4.77
2019-05-06T22:23:59.752Z,4.20
2019-05-06T22:26:32.520Z,4.90
2019-05-06T22:29:04.236Z,6.57
2019-05-06T22:31:35.819Z,5.40
2019-05-06T22:34:07.095Z,7.70
2019-05-06T22:36:39.211Z,7.30
2019-05-06T22:39:12.036Z,7.17
2019-05-06T22:41:44.139Z,4.90
2019-05-06T22:44:17.135Z,5.03
2019-05-06T22:46:48.863Z,5.07
2019-05-06T22:49:22.471Z,4.80
2019-05-06T22:51:53.261Z,4.07
2019-05-06T22:54:24.674Z,4.60
2019-05-06T22:56:56.008Z,4.60
2019-05-06T22:59:27.337Z,13.37
2019-05-06T23:02:06.023Z,14.87
2019-05-06T23:04:38.112Z,11.10
2019-05-06T23:07:09.476Z,8.00
2019-05-06T23:09:42.502Z,6.60
2019-05-06T23:12:13.728Z,9.00
2019-05-06T23:14:45.091Z,6.37
2019-05-06T23:17:16.392Z,5.10
2019-05-06T23:19:48.044Z,3.70
2019-05-06T23:22:19.416Z,3.70
2019-05-06T23:24:52.257Z,4.37
2019-05-06T23:27:23.887Z,3.90
2019-05-06T23:29:56.737Z,4.33
2019-05-06T23:32:27.917Z,3.90
2019-05-06T23:34:59.170Z,3.60
2019-05-06T23:37:28.783Z,3.43
2019-05-06T23:40:39.170Z,3.73
2019-05-06T23:43:46.339Z,5.00
2019-05-06T23:46:53.307Z,4.30
2019-05-06T23:50:00.783Z,4.00
2019-05-06T23:53:08.371Z,4.67
2019-05-06T23:56:15.707Z,4.23
2019-05-06T23:58:47.495Z,4.30
